Time;durP1;ratioP1;P1;durP2;ratioP2;P2;SDS_P1;SDS_P2;PMS_P1;PMS_P2;Temp;Humidity;BMP_temperature;BMP_pressure;BME280_temperature;BME280_humidity;BME280_pressure;Samples;Min_cycle;Max_cycle;Signal;HPM_P1;HPM_P2
2023/11/12 00:01:36;;;;;;;0.40;0.37;;;5.10;99.90;;;;;;5095962;28;20440;-78
2023/11/12 00:04:04;;;;;;;0.50;0.50;;;5.10;99.90;;;;;;5099880;28;20476;-80
2023/11/12 00:06:31;;;;;;;0.60;0.50;;;5.10;99.90;;;;;;5096321;28;20883;-80
2023/11/12 00:08:58;;;;;;;9.37;0.80;;;5.10;99.90;;;;;;5096581;28;20448;-80
2023/11/12 00:11:25;;;;;;;0.40;0.40;;;5.00;99.90;;;;;;5097004;28;20444;-80
2023/11/12 00:13:52;;;;;;;0.83;0.83;;;5.00;99.90;;;;;;5096992;28;20472;-80
2023/11/12 00:16:20;;;;;;;0.63;0.50;;;4.90;99.90;;;;;;5097450;28;20483;-79
2023/11/12 00:18:48;;;;;;;0.93;0.37;;;4.90;99.90;;;;;;5096559;28;20543;-80
2023/11/12 00:21:14;;;;;;;0.40;0.40;;;4.90;99.90;;;;;;5097097;28;20444;-78
2023/11/12 00:23:41;;;;;;;0.40;0.40;;;4.90;99.90;;;;;;5096195;28;20447;-80
2023/11/12 00:26:08;;;;;;;0.40;0.40;;;5.00;99.90;;;;;;5095185;28;20440;-78
2023/11/12 00:28:35;;;;;;;0.40;0.40;;;5.00;99.90;;;;;;5097462;28;20515;-79
2023/11/12 00:31:01;;;;;;;2.33;0.37;;;4.90;99.90;;;;;;5096410;28;20432;-79
2023/11/12 00:33:29;;;;;;;0.47;0.47;;;4.90;99.90;;;;;;5096247;28;20440;-78
2023/11/12 00:35:57;;;;;;;0.60;0.40;;;4.90;99.90;;;;;;5096181;28;21002;-79
2023/11/12 00:38:24;;;;;;;0.40;0.30;;;5.00;99.90;;;;;;5098793;28;20421;-79
2023/11/12 00:40:51;;;;;;;0.50;0.50;;;5.00;99.90;;;;;;5098460;28;20497;-80
2023/11/12 00:43:19;;;;;;;1.13;0.50;;;5.00;99.90;;;;;;5098625;28;20428;-80
2023/11/12 00:45:47;;;;;;;0.40;0.40;;;5.00;99.90;;;;;;5098332;28;20964;-80
2023/11/12 00:48:16;;;;;;;0.60;0.40;;;4.90;99.90;;;;;;5100730;28;20454;-80
2023/11/12 00:50:43;;;;;;;1.00;0.87;;;4.90;99.90;;;;;;5098109;28;20878;-79
2023/11/12 00:53:11;;;;;;;0.30;0.30;;;4.80;99.90;;;;;;5098323;28;20443;-79
2023/11/12 00:55:38;;;;;;;1.37;0.53;;;4.80;99.90;;;;;;5099884;28;20483;-80
2023/11/12 00:58:05;;;;;;;0.50;0.40;;;4.90;99.90;;;;;;5096278;28;20817;-78
2023/11/12 01:00:32;;;;;;;0.30;0.30;;;4.90;99.90;;;;;;5094989;28;20455;-78
2023/11/12 01:02:59;;;;;;;0.80;0.40;;;4.90;99.90;;;;;;5095635;28;20471;-78
2023/11/12 01:05:26;;;;;;;1.00;0.47;;;4.90;99.90;;;;;;5096953;28;20486;-78
2023/11/12 01:07:53;;;;;;;0.80;0.50;;;4.80;99.90;;;;;;5097585;28;20505;-80
2023/11/12 01:10:22;;;;;;;1.37;0.30;;;4.80;99.90;;;;;;5098855;28;20451;-80
2023/11/12 01:12:48;;;;;;;2.03;0.60;;;4.90;99.90;;;;;;5100134;28;20939;-78
2023/11/12 01:15:17;;;;;;;13.43;0.90;;;4.90;99.90;;;;;;5097800;28;20470;-78
2023/11/12 01:17:45;;;;;;;0.50;0.40;;;4.90;99.90;;;;;;5101204;28;20455;-78
2023/11/12 01:20:12;;;;;;;0.50;0.50;;;4.90;99.90;;;;;;5097655;28;20535;-80
2023/11/12 01:22:39;;;;;;;0.30;0.30;;;4.90;99.90;;;;;;5099376;28;20557;-80
2023/11/12 01:25:07;;;;;;;0.40;0.37;;;4.90;99.90;;;;;;5100695;28;20482;-80
2023/11/12 01:27:35;;;;;;;0.60;0.40;;;5.00;99.90;;;;;;5099635;28;20531;-79
2023/11/12 01:30:02;;;;;;;0.40;0.40;;;5.00;99.90;;;;;;5097495;28;20924;-79
2023/11/12 01:32:29;;;;;;;0.40;0.33;;;5.00;99.90;;;;;;5099069;28;20538;-80
2023/11/12 01:34:56;;;;;;;0.77;0.40;;;5.00;99.90;;;;;;5097234;28;20459;-80
2023/11/12 01:37:23;;;;;;;0.40;0.40;;;5.00;99.90;;;;;;5096163;28;20562;-78
2023/11/12 01:39:49;;;;;;;0.40;0.30;;;5.00;99.90;;;;;;5095983;28;20450;-79
2023/11/12 01:42:16;;;;;;;0.80;0.80;;;5.00;99.90;;;;;;5096287;28;20444;-78
2023/11/12 01:44:44;;;;;;;0.30;0.30;;;5.00;99.90;;;;;;5096710;28;20464;-80
2023/11/12 01:47:13;;;;;;;0.80;0.50;;;5.00;99.90;;;;;;5098643;28;20439;-79
2023/11/12 01:49:40;;;;;;;0.30;0.30;;;4.90;99.90;;;;;;5097708;28;20471;-80
2023/11/12 01:52:08;;;;;;;1.73;0.40;;;4.80;99.90;;;;;;5098759;28;20459;-78
2023/11/12 01:54:38;;;;;;;0.40;0.30;;;4.80;99.90;;;;;;5095760;28;20464;-78
2023/11/12 01:57:05;;;;;;;1.27;0.50;;;4.80;99.90;;;;;;5097735;28;20471;-79
2023/11/12 01:59:34;;;;;;;0.50;0.50;;;4.80;99.90;;;;;;5097443;28;20448;-79
2023/11/12 02:02:03;;;;;;;0.50;0.30;;;4.80;99.90;;;;;;5098210;28;20448;-79
2023/11/12 02:04:30;;;;;;;0.83;0.83;;;4.90;99.90;;;;;;5095991;28;20480;-80
2023/11/12 02:06:59;;;;;;;0.30;0.30;;;4.90;99.90;;;;;;5097317;28;20436;-79
2023/11/12 02:09:26;;;;;;;0.30;0.30;;;5.00;99.90;;;;;;5097749;28;20432;-79
2023/11/12 02:11:54;;;;;;;0.40;0.40;;;5.00;99.90;;;;;;5098761;28;20440;-78
2023/11/12 02:14:21;;;;;;;0.40;0.40;;;5.10;99.90;;;;;;5094427;28;21023;-79
2023/11/12 02:16:49;;;;;;;0.40;0.30;;;5.10;99.90;;;;;;5093588;28;20475;-80
2023/11/12 02:19:26;;;;;;;0.53;0.50;;;5.10;99.90;;;;;;5094911;28;20436;-79
2023/11/12 02:21:53;;;;;;;0.40;0.37;;;5.20;99.90;;;;;;5094516;28;20439;-80
2023/11/12 02:24:22;;;;;;;0.30;0.30;;;5.20;99.90;;;;;;5094566;28;20460;-79
2023/11/12 02:26:49;;;;;;;4.03;0.77;;;5.30;99.90;;;;;;5095347;28;20468;-80
2023/11/12 02:29:16;;;;;;;0.40;0.37;;;5.30;99.90;;;;;;5094707;28;20443;-80
2023/11/12 02:31:43;;;;;;;0.30;0.30;;;5.20;99.90;;;;;;5095770;28;20462;-80
2023/11/12 02:34:10;;;;;;;0.30;0.30;;;5.20;99.90;;;;;;5095282;28;20470;-80
2023/11/12 02:36:38;;;;;;;0.50;0.40;;;5.10;99.90;;;;;;5095761;28;20972;-80
2023/11/12 02:39:07;;;;;;;0.30;0.30;;;5.00;99.90;;;;;;5095188;28;20444;-79
2023/11/12 02:41:37;;;;;;;0.73;0.40;;;5.00;99.90;;;;;;5096639;28;20911;-79
2023/11/12 02:44:07;;;;;;;0.77;0.50;;;4.90;99.90;;;;;;5095885;28;20915;-80
2023/11/12 02:46:35;;;;;;;0.30;0.30;;;4.80;99.90;;;;;;5096624;28;20428;-80
2023/11/12 02:49:20;;;;;;;0.43;0.40;;;4.80;99.90;;;;;;5100321;28;20448;-80
2023/11/12 02:51:49;;;;;;;0.40;0.40;;;4.70;99.90;;;;;;5099593;28;20460;-80
2023/11/12 02:54:15;;;;;;;0.50;0.40;;;4.60;99.90;;;;;;5100489;28;20467;-81
2023/11/12 02:56:43;;;;;;;0.30;0.30;;;4.50;99.90;;;;;;5099422;28;20486;-79
2023/11/12 02:59:10;;;;;;;0.40;0.30;;;4.40;99.90;;;;;;5100296;28;20966;-80
2023/11/12 03:01:37;;;;;;;0.30;0.30;;;4.40;99.90;;;;;;5099550;28;20451;-79
2023/11/12 03:04:05;;;;;;;0.53;0.53;;;4.30;99.90;;;;;;5098738;28;21041;-80
2023/11/12 03:06:31;;;;;;;0.40;0.40;;;4.20;99.90;;;;;;5099308;28;20424;-79
2023/11/12 03:08:58;;;;;;;0.30;0.30;;;4.20;99.90;;;;;;5099929;28;20432;-79
2023/11/12 03:11:26;;;;;;;0.40;0.30;;;4.10;99.90;;;;;;5099744;28;20443;-79
2023/11/12 03:13:55;;;;;;;0.40;0.30;;;4.10;99.90;;;;;;5099341;28;20472;-79
2023/11/12 03:16:23;;;;;;;0.30;0.30;;;4.10;99.90;;;;;;5098899;28;20518;-80
2023/11/12 03:18:50;;;;;;;0.30;0.30;;;4.10;99.90;;;;;;5100197;28;20443;-78
2023/11/12 03:21:17;;;;;;;0.40;0.40;;;4.10;99.90;;;;;;5099677;28;20470;-79
2023/11/12 03:23:43;;;;;;;0.50;0.30;;;4.10;99.90;;;;;;5100086;28;20463;-79
2023/11/12 03:26:10;;;;;;;0.40;0.30;;;4.10;99.90;;;;;;5099576;28;20463;-79
2023/11/12 03:28:38;;;;;;;0.30;0.30;;;4.10;99.90;;;;;;5100121;28;20439;-79
2023/11/12 03:31:06;;;;;;;1.27;0.30;;;4.10;99.90;;;;;;5099587;28;20534;-79
2023/11/12 03:33:32;;;;;;;0.37;0.37;;;4.10;99.90;;;;;;5100098;28;20447;-78
2023/11/12 03:35:59;;;;;;;0.40;0.40;;;4.10;99.90;;;;;;5099858;28;20444;-78
2023/11/12 03:38:26;;;;;;;0.40;0.40;;;4.10;99.90;;;;;;5101097;28;20507;-79
2023/11/12 03:40:53;;;;;;;0.40;0.30;;;4.10;99.90;;;;;;5100007;28;20898;-79
2023/11/12 03:43:19;;;;;;;0.30;0.30;;;4.10;99.90;;;;;;5100346;28;20451;-78
2023/11/12 03:45:46;;;;;;;0.70;0.53;;;4.10;99.90;;;;;;5098496;28;20456;-79
2023/11/12 03:48:14;;;;;;;0.60;0.30;;;4.10;99.90;;;;;;5099604;28;20437;-79
2023/11/12 03:50:41;;;;;;;0.30;0.30;;;4.10;99.90;;;;;;5098507;28;20440;-78
2023/11/12 03:53:08;;;;;;;0.60;0.60;;;4.00;99.90;;;;;;5099821;28;20448;-79
2023/11/12 03:55:35;;;;;;;0.57;0.57;;;4.10;99.90;;;;;;5098673;28;20979;-79
2023/11/12 03:58:02;;;;;;;0.30;0.30;;;4.00;99.90;;;;;;5097721;28;20550;-80
2023/11/12 04:00:29;;;;;;;0.90;0.30;;;4.00;99.90;;;;;;5099481;28;20451;-79
2023/11/12 04:02:56;;;;;;;0.30;0.30;;;4.10;99.90;;;;;;5098612;28;20452;-78
2023/11/12 04:05:24;;;;;;;3.00;0.40;;;4.10;99.90;;;;;;5120003;22;20999;-79
2023/11/12 04:07:51;;;;;;;0.30;0.30;;;4.10;99.90;;;;;;5095413;28;20440;-78
2023/11/12 04:10:18;;;;;;;0.50;0.50;;;4.10;99.90;;;;;;5095540;28;20444;-78
2023/11/12 04:12:45;;;;;;;0.40;0.30;;;4.10;99.90;;;;;;5095268;28;20450;-78
2023/11/12 04:15:12;;;;;;;0.80;0.80;;;4.10;99.90;;;;;;5095386;28;20464;-78
2023/11/12 04:17:38;;;;;;;0.50;0.50;;;4.20;99.90;;;;;;5095366;28;20491;-78
2023/11/12 04:20:08;;;;;;;0.60;0.60;;;4.20;99.90;;;;;;5095384;28;20448;-78
2023/11/12 04:22:37;;;;;;;0.30;0.30;;;4.30;99.90;;;;;;5095324;28;20822;-78
2023/11/12 04:25:05;;;;;;;0.37;0.30;;;4.30;99.90;;;;;;5094840;28;20468;-78
2023/11/12 04:27:32;;;;;;;0.40;0.30;;;4.30;99.90;;;;;;5095248;28;20447;-78
2023/11/12 04:29:58;;;;;;;0.30;0.30;;;4.30;99.90;;;;;;5095112;28;20448;-78
2023/11/12 04:32:25;;;;;;;0.40;0.30;;;4.30;99.90;;;;;;5095606;28;20444;-78
2023/11/12 04:34:52;;;;;;;0.30;0.30;;;4.30;99.90;;;;;;5095044;28;20928;-78
2023/11/12 04:37:18;;;;;;;0.57;0.40;;;4.20;99.90;;;;;;5094937;28;20476;-78
2023/11/12 04:39:48;;;;;;;0.70;0.70;;;4.20;99.90;;;;;;5094950;28;20448;-78
2023/11/12 04:42:14;;;;;;;0.47;0.47;;;4.20;99.90;;;;;;5095096;28;20448;-78
2023/11/12 04:44:41;;;;;;;0.70;0.50;;;4.20;99.90;;;;;;5094847;28;20467;-78
2023/11/12 04:47:08;;;;;;;0.50;0.40;;;4.10;99.90;;;;;;5094868;28;20568;-78
2023/11/12 04:49:35;;;;;;;0.67;0.30;;;4.20;99.90;;;;;;5094775;28;20815;-78
2023/11/12 04:52:01;;;;;;;0.93;0.40;;;4.10;99.90;;;;;;5094767;28;20439;-78
2023/11/12 04:54:28;;;;;;;1.60;0.40;;;4.20;99.90;;;;;;5094632;28;20821;-78
2023/11/12 04:56:56;;;;;;;0.80;0.30;;;4.20;99.90;;;;;;5094392;28;20480;-78
2023/11/12 04:59:23;;;;;;;0.50;0.40;;;4.20;99.90;;;;;;5094574;28;20510;-78
2023/11/12 05:01:50;;;;;;;0.40;0.40;;;4.20;99.90;;;;;;5094504;28;20448;-78
2023/11/12 05:04:17;;;;;;;1.53;0.50;;;4.10;99.90;;;;;;5094148;28;20827;-78
2023/11/12 05:06:43;;;;;;;0.40;0.40;;;4.10;99.90;;;;;;5094420;28;20497;-78
2023/11/12 05:09:11;;;;;;;0.43;0.43;;;4.10;99.90;;;;;;5094347;28;20447;-78
2023/11/12 05:11:38;;;;;;;0.40;0.30;;;4.10;99.90;;;;;;5094073;28;20452;-78
2023/11/12 05:14:07;;;;;;;2.23;0.50;;;4.10;99.90;;;;;;5094492;28;20446;-78
2023/11/12 05:16:34;;;;;;;0.37;0.27;;;4.10;99.90;;;;;;5094245;28;20451;-78
2023/11/12 05:19:01;;;;;;;0.30;0.30;;;4.00;99.90;;;;;;5093870;28;20928;-78
2023/11/12 05:21:29;;;;;;;1.47;0.60;;;4.00;99.90;;;;;;5094208;28;20440;-78
2023/11/12 05:23:55;;;;;;;0.97;0.60;;;4.00;99.90;;;;;;5094663;28;20796;-78
2023/11/12 05:26:22;;;;;;;0.47;0.47;;;4.00;99.90;;;;;;5094120;28;20448;-78
2023/11/12 05:28:49;;;;;;;0.60;0.60;;;4.00;99.90;;;;;;5094318;28;20540;-78
2023/11/12 05:31:17;;;;;;;0.40;0.40;;;3.80;99.90;;;;;;5094139;28;20813;-78
2023/11/12 05:33:44;;;;;;;0.77;0.77;;;3.90;99.90;;;;;;5094058;28;20432;-78
2023/11/12 05:36:11;;;;;;;0.60;0.40;;;3.90;99.90;;;;;;5093651;28;20451;-79
2023/11/12 05:38:39;;;;;;;0.60;0.57;;;3.90;99.90;;;;;;5093898;28;20479;-79
2023/11/12 05:41:07;;;;;;;0.47;0.47;;;3.90;99.90;;;;;;5093927;28;20447;-79
2023/11/12 05:43:34;;;;;;;0.43;0.40;;;3.70;99.90;;;;;;5098731;28;20436;-78
2023/11/12 05:46:00;;;;;;;1.27;1.17;;;3.60;99.90;;;;;;5098252;28;20478;-78
2023/11/12 05:48:28;;;;;;;0.60;0.53;;;3.60;99.90;;;;;;5098053;28;20451;-78
2023/11/12 05:50:57;;;;;;;0.30;0.30;;;3.60;99.90;;;;;;5097256;28;20937;-78
2023/11/12 05:53:24;;;;;;;0.87;0.50;;;3.70;99.90;;;;;;5098299;28;20452;-78
2023/11/12 05:55:51;;;;;;;0.50;0.30;;;3.80;99.90;;;;;;5096622;28;20463;-78
2023/11/12 05:58:18;;;;;;;0.50;0.50;;;3.80;99.90;;;;;;5097160;28;20557;-78
2023/11/12 06:00:45;;;;;;;0.60;0.30;;;3.80;99.90;;;;;;5096917;28;20817;-78
2023/11/12 06:03:12;;;;;;;0.67;0.40;;;3.80;99.90;;;;;;5095284;28;20500;-78
2023/11/12 06:05:40;;;;;;;0.80;0.80;;;3.70;99.90;;;;;;5093285;28;20858;-78
2023/11/12 06:08:07;;;;;;;0.50;0.50;;;3.80;99.90;;;;;;5093670;28;20466;-78
2023/11/12 06:10:34;;;;;;;0.70;0.70;;;3.80;99.90;;;;;;5093548;28;20514;-78
2023/11/12 06:13:01;;;;;;;0.40;0.40;;;3.80;99.90;;;;;;5094282;28;20439;-78
2023/11/12 06:15:28;;;;;;;0.40;0.37;;;3.70;99.90;;;;;;5093684;28;20956;-78
2023/11/12 06:17:55;;;;;;;0.50;0.50;;;3.70;99.90;;;;;;5093517;28;20484;-78
2023/11/12 06:20:23;;;;;;;1.37;0.40;;;3.70;99.90;;;;;;5093578;28;20444;-78
2023/11/12 06:22:51;;;;;;;0.50;0.40;;;3.70;99.90;;;;;;5096740;28;20493;-78
2023/11/12 06:25:18;;;;;;;0.50;0.50;;;3.70;99.90;;;;;;5097942;28;20470;-78
2023/11/12 06:27:44;;;;;;;0.87;0.60;;;3.70;99.90;;;;;;5097554;28;20459;-78
2023/11/12 06:30:12;;;;;;;0.40;0.30;;;3.70;99.90;;;;;;5097594;28;20452;-78
2023/11/12 06:32:39;;;;;;;0.50;0.50;;;3.70;99.90;;;;;;5097470;28;20440;-78
2023/11/12 06:35:06;;;;;;;0.50;0.40;;;3.70;99.90;;;;;;5097040;28;20501;-78
2023/11/12 06:37:33;;;;;;;0.60;0.60;;;3.70;99.90;;;;;;5097222;28;20999;-78
2023/11/12 06:40:01;;;;;;;0.57;0.57;;;3.70;99.90;;;;;;5097386;28;20444;-78
2023/11/12 06:42:28;;;;;;;4.20;0.50;;;3.70;99.90;;;;;;5097128;28;20439;-78
2023/11/12 06:44:55;;;;;;;1.20;0.70;;;3.60;99.90;;;;;;5097413;28;20456;-78
2023/11/12 06:47:22;;;;;;;0.90;0.37;;;3.60;99.90;;;;;;5097145;28;20440;-78
2023/11/12 06:49:48;;;;;;;0.40;0.40;;;3.70;99.90;;;;;;5097566;28;20479;-78
2023/11/12 06:52:15;;;;;;;0.53;0.50;;;3.70;99.90;;;;;;5097101;28;20450;-78
2023/11/12 06:54:42;;;;;;;0.63;0.63;;;3.80;99.90;;;;;;5096688;28;21002;-78
2023/11/12 06:57:10;;;;;;;0.50;0.50;;;3.80;99.90;;;;;;5096954;28;20446;-78
2023/11/12 06:59:37;;;;;;;0.60;0.40;;;3.80;99.90;;;;;;5096969;28;20444;-78
2023/11/12 07:02:04;;;;;;;1.27;0.60;;;3.90;99.90;;;;;;5096869;28;20944;-78
2023/11/12 07:04:31;;;;;;;0.50;0.50;;;3.90;99.90;;;;;;5096840;28;20498;-78
2023/11/12 07:06:58;;;;;;;0.40;0.40;;;3.90;99.90;;;;;;5096952;28;20447;-78
2023/11/12 07:09:25;;;;;;;0.87;0.60;;;3.90;99.90;;;;;;5096688;28;20441;-78
2023/11/12 07:11:52;;;;;;;0.30;0.30;;;4.00;99.90;;;;;;5096712;28;20863;-78
2023/11/12 07:14:20;;;;;;;2.40;0.70;;;4.00;99.90;;;;;;5096259;28;20460;-78
2023/11/12 07:16:47;;;;;;;0.63;0.63;;;4.30;99.90;;;;;;5096394;28;20495;-78
2023/11/12 07:19:14;;;;;;;1.00;0.60;;;4.10;99.90;;;;;;5096134;28;21066;-78
2023/11/12 07:21:41;;;;;;;1.00;0.90;;;4.10;99.90;;;;;;5096557;28;20518;-78
2023/11/12 07:24:08;;;;;;;0.60;0.60;;;4.10;99.90;;;;;;5096724;28;20485;-78
2023/11/12 07:26:35;;;;;;;0.30;0.27;;;4.10;99.90;;;;;;5096422;28;20477;-78
2023/11/12 07:29:02;;;;;;;0.67;0.67;;;4.20;99.90;;;;;;5096481;28;21011;-78
2023/11/12 07:31:30;;;;;;;0.50;0.40;;;4.20;99.90;;;;;;5096375;28;20538;-79
2023/11/12 07:33:57;;;;;;;0.93;0.60;;;4.30;99.90;;;;;;5094998;28;20455;-78
2023/11/12 07:36:24;;;;;;;0.50;0.50;;;4.30;99.90;;;;;;5096199;28;20444;-78
2023/11/12 07:38:51;;;;;;;0.60;0.60;;;4.30;99.90;;;;;;5095893;28;20475;-78
2023/11/12 07:41:18;;;;;;;1.60;0.60;;;4.30;99.90;;;;;;5096066;28;20448;-78
2023/11/12 07:43:45;;;;;;;1.03;0.50;;;4.30;99.90;;;;;;5096232;28;20525;-78
2023/11/12 07:46:12;;;;;;;1.57;0.70;;;4.30;99.90;;;;;;5095851;28;20456;-78
2023/11/12 07:48:40;;;;;;;0.30;0.30;;;4.30;99.90;;;;;;5096508;28;20535;-78
2023/11/12 07:51:07;;;;;;;1.30;0.80;;;4.30;99.90;;;;;;5096535;28;20444;-78
2023/11/12 07:53:35;;;;;;;0.30;0.30;;;4.30;99.90;;;;;;5096868;28;20494;-79
2023/11/12 07:56:02;;;;;;;0.40;0.30;;;4.30;99.90;;;;;;5095810;28;20483;-79
2023/11/12 07:58:29;;;;;;;0.60;0.57;;;4.40;99.90;;;;;;5096222;28;20566;-78
2023/11/12 08:00:56;;;;;;;0.40;0.40;;;4.50;99.90;;;;;;5096027;28;20448;-78
2023/11/12 08:03:23;;;;;;;0.40;0.30;;;4.50;99.90;;;;;;5095640;28;20446;-78
2023/11/12 08:05:51;;;;;;;1.27;0.77;;;4.50;99.90;;;;;;5095256;28;20848;-78
2023/11/12 08:08:17;;;;;;;0.30;0.30;;;4.50;99.90;;;;;;5095428;28;20436;-78
2023/11/12 08:10:44;;;;;;;1.03;0.70;;;4.50;99.90;;;;;;5095703;28;20440;-78
2023/11/12 08:13:11;;;;;;;0.73;0.73;;;4.60;99.90;;;;;;5095868;28;20519;-78
2023/11/12 08:15:38;;;;;;;1.30;0.90;;;4.60;99.90;;;;;;5095470;28;20479;-78
2023/11/12 08:18:06;;;;;;;0.40;0.40;;;4.70;99.90;;;;;;5095095;28;21022;-78
2023/11/12 08:20:34;;;;;;;3.17;0.80;;;4.70;99.90;;;;;;5095561;28;20428;-79
2023/11/12 08:23:02;;;;;;;0.50;0.40;;;4.80;99.90;;;;;;5095468;28;20436;-79
2023/11/12 08:25:28;;;;;;;0.50;0.40;;;4.90;99.90;;;;;;5096876;28;20838;-78
2023/11/12 08:27:56;;;;;;;0.47;0.47;;;4.90;99.90;;;;;;5096498;28;20444;-78
2023/11/12 08:30:23;;;;;;;1.10;0.70;;;4.90;99.90;;;;;;5096272;28;20210;-79
2023/11/12 08:32:50;;;;;;;0.77;0.50;;;5.00;99.90;;;;;;5095558;28;20447;-78
2023/11/12 08:35:16;;;;;;;0.40;0.40;;;5.00;99.90;;;;;;5095106;28;20487;-78
2023/11/12 08:37:43;;;;;;;0.40;0.40;;;5.10;99.90;;;;;;5095248;28;20448;-78
2023/11/12 08:40:12;;;;;;;0.40;0.40;;;5.20;99.90;;;;;;5094923;28;20428;-79
2023/11/12 08:42:39;;;;;;;1.47;0.83;;;5.30;99.90;;;;;;5095174;28;20493;-79
2023/11/12 08:45:06;;;;;;;0.60;0.60;;;5.40;99.90;;;;;;5094572;28;20968;-79
2023/11/12 08:47:33;;;;;;;0.50;0.50;;;5.50;99.90;;;;;;5095088;28;20452;-79
2023/11/12 08:50:00;;;;;;;0.40;0.40;;;5.60;99.90;;;;;;5094990;28;20448;-79
2023/11/12 08:52:27;;;;;;;0.30;0.30;;;5.70;99.90;;;;;;5095351;28;20436;-80
2023/11/12 08:54:53;;;;;;;0.60;0.60;;;5.70;99.90;;;;;;5094831;28;20842;-79
2023/11/12 08:57:21;;;;;;;0.40;0.40;;;5.70;99.90;;;;;;5094933;28;20502;-79
2023/11/12 08:59:48;;;;;;;6.00;1.10;;;5.70;99.90;;;;;;5094447;28;20479;-79
2023/11/12 09:02:15;;;;;;;1.37;0.47;;;5.80;99.90;;;;;;5094854;28;20493;-79
2023/11/12 09:04:42;;;;;;;6.57;0.90;;;5.90;99.90;;;;;;5094656;28;20483;-79
2023/11/12 09:07:09;;;;;;;2.57;0.97;;;6.10;99.90;;;;;;5094586;28;20444;-79
2023/11/12 09:09:35;;;;;;;0.70;0.60;;;6.20;99.90;;;;;;5094596;28;20436;-79
2023/11/12 09:12:04;;;;;;;0.30;0.30;;;6.30;99.90;;;;;;5094460;28;20439;-79
2023/11/12 09:14:32;;;;;;;0.50;0.47;;;6.10;99.90;;;;;;5094521;28;20510;-79
2023/11/12 09:16:58;;;;;;;0.50;0.50;;;6.10;99.90;;;;;;5094273;28;20440;-79
2023/11/12 09:19:25;;;;;;;0.57;0.50;;;6.00;99.90;;;;;;5094149;28;20471;-79
2023/11/12 09:21:53;;;;;;;0.67;0.57;;;6.00;99.90;;;;;;5094648;28;20451;-79
2023/11/12 09:24:19;;;;;;;0.93;0.80;;;6.00;99.90;;;;;;5094835;28;20460;-79
2023/11/12 09:26:46;;;;;;;0.40;0.40;;;6.00;99.90;;;;;;5094067;28;20444;-79
2023/11/12 09:29:13;;;;;;;0.40;0.40;;;5.90;99.90;;;;;;5094160;28;20451;-79
2023/11/12 09:31:41;;;;;;;0.50;0.50;;;5.90;99.90;;;;;;5094058;28;20444;-79
2023/11/12 09:34:08;;;;;;;0.50;0.50;;;5.90;99.90;;;;;;5093850;28;20439;-79
2023/11/12 09:36:34;;;;;;;0.30;0.30;;;5.90;99.90;;;;;;5094241;28;20454;-79
2023/11/12 09:39:03;;;;;;;1.00;0.50;;;5.90;99.90;;;;;;5094066;28;20480;-79
2023/11/12 09:41:31;;;;;;;0.60;0.60;;;5.90;99.90;;;;;;5099276;28;20448;-79
2023/11/12 09:44:03;;;;;;;0.97;0.50;;;6.00;99.90;;;;;;5094032;28;20830;-79
2023/11/12 09:46:30;;;;;;;0.67;0.67;;;6.00;99.90;;;;;;5094234;28;20432;-79
2023/11/12 09:48:59;;;;;;;0.80;0.47;;;6.10;99.90;;;;;;5094095;28;20436;-79
2023/11/12 09:51:27;;;;;;;3.20;1.10;;;6.10;99.90;;;;;;5093743;28;20444;-79
2023/11/12 09:53:54;;;;;;;1.00;0.50;;;6.20;99.90;;;;;;5094492;28;20455;-78
2023/11/12 09:56:24;;;;;;;0.93;0.60;;;6.40;99.90;;;;;;5093143;28;20448;-78
2023/11/12 09:58:52;;;;;;;1.40;0.70;;;6.40;99.90;;;;;;5093791;28;20480;-78
2023/11/12 10:01:20;;;;;;;0.50;0.50;;;6.40;99.90;;;;;;5093701;28;20880;-78
2023/11/12 10:03:48;;;;;;;0.40;0.40;;;6.50;99.90;;;;;;5093656;28;20444;-79
2023/11/12 10:06:16;;;;;;;0.30;0.30;;;6.50;99.90;;;;;;5093462;28;20976;-78
2023/11/12 10:08:45;;;;;;;1.03;0.40;;;6.60;99.90;;;;;;5093744;28;20454;-78
2023/11/12 10:11:16;;;;;;;1.33;0.60;;;6.50;99.90;;;;;;5093221;28;20483;-79
2023/11/12 10:13:43;;;;;;;0.40;0.30;;;6.40;99.90;;;;;;5093605;28;20443;-79
2023/11/12 10:16:29;;;;;;;0.80;0.57;;;6.40;99.90;;;;;;5093465;28;20492;-79
2023/11/12 10:19:08;;;;;;;0.93;0.40;;;6.30;99.90;;;;;;5093505;28;20464;-79
2023/11/12 10:21:51;;;;;;;0.30;0.30;;;6.30;99.90;;;;;;5093559;28;20481;-79
2023/11/12 10:24:18;;;;;;;0.40;0.30;;;6.20;99.90;;;;;;5097814;28;20460;-79
2023/11/12 10:26:45;;;;;;;1.20;0.70;;;6.20;99.90;;;;;;5098336;28;20443;-79
2023/11/12 10:29:19;;;;;;;0.70;0.70;;;6.20;99.90;;;;;;5099048;28;20447;-79
2023/11/12 10:31:46;;;;;;;1.00;0.50;;;6.20;99.90;;;;;;5097183;28;20423;-79
2023/11/12 10:34:16;;;;;;;2.53;0.90;;;6.20;99.90;;;;;;5094330;28;20470;-78
2023/11/12 10:37:02;;;;;;;6.93;0.63;;;6.20;99.90;;;;;;5093626;28;20417;-79
2023/11/12 10:39:34;;;;;;;0.50;0.40;;;6.20;99.90;;;;;;5094563;28;20525;-79
2023/11/12 10:42:01;;;;;;;1.03;0.43;;;6.20;99.90;;;;;;5093540;28;20460;-79
2023/11/12 10:44:28;;;;;;;0.70;0.70;;;6.30;99.90;;;;;;5093286;28;20464;-79
2023/11/12 10:46:56;;;;;;;0.50;0.50;;;6.40;99.90;;;;;;5093344;28;20444;-79
2023/11/12 10:49:24;;;;;;;0.43;0.40;;;6.50;99.90;;;;;;5093292;28;20444;-79
2023/11/12 10:51:52;;;;;;;0.63;0.63;;;6.50;99.90;;;;;;5093088;28;20444;-79
2023/11/12 10:54:20;;;;;;;0.60;0.50;;;6.50;99.90;;;;;;5093184;28;20964;-79
2023/11/12 10:56:48;;;;;;;1.83;1.13;;;6.50;99.90;;;;;;5093137;28;20444;-79
2023/11/12 10:59:15;;;;;;;0.73;0.63;;;6.50;99.90;;;;;;5092718;28;21006;-79
2023/11/12 11:01:43;;;;;;;1.23;0.83;;;6.60;99.90;;;;;;5093344;28;20444;-79
2023/11/12 11:04:12;;;;;;;1.07;0.83;;;6.50;99.90;;;;;;5093095;28;20455;-79
2023/11/12 11:06:41;;;;;;;1.27;0.90;;;6.50;99.90;;;;;;5093223;28;20527;-79
2023/11/12 11:09:10;;;;;;;0.87;0.63;;;6.50;99.90;;;;;;5097307;28;20439;-79
2023/11/12 11:11:37;;;;;;;0.57;0.57;;;6.60;99.90;;;;;;5098673;28;20475;-79
2023/11/12 11:14:21;;;;;;;0.80;0.40;;;6.60;99.90;;;;;;5097503;28;20440;-79
2023/11/12 11:16:49;;;;;;;2.60;0.80;;;6.70;99.90;;;;;;5096779;28;20457;-79
2023/11/12 11:19:17;;;;;;;0.90;0.60;;;6.90;99.90;;;;;;5096584;28;20600;-79
2023/11/12 11:22:26;;;;;;;1.33;0.70;;;6.90;99.90;;;;;;5096781;28;20444;-79
2023/11/12 11:24:56;;;;;;;0.80;0.70;;;6.90;99.90;;;;;;5096559;28;20468;-79
2023/11/12 11:27:24;;;;;;;1.17;0.70;;;7.00;99.90;;;;;;5097337;28;20444;-79
2023/11/12 11:30:09;;;;;;;2.67;1.33;;;7.10;99.90;;;;;;5096581;28;20443;-79
2023/11/12 11:32:36;;;;;;;2.03;0.70;;;7.20;99.90;;;;;;5096629;28;20497;-79
2023/11/12 11:35:15;;;;;;;0.60;0.60;;;7.40;99.90;;;;;;5096447;28;20479;-79
2023/11/12 11:38:11;;;;;;;1.90;0.60;;;7.50;99.90;;;;;;5096528;28;20431;-79
2023/11/12 11:40:42;;;;;;;0.40;0.40;;;7.60;99.90;;;;;;5096442;28;20483;-79
2023/11/12 11:43:31;;;;;;;0.50;0.40;;;7.70;99.90;;;;;;5096868;28;20464;-79
2023/11/12 11:46:08;;;;;;;1.20;0.80;;;7.70;99.90;;;;;;5096674;28;20929;-79
2023/11/12 11:48:34;;;;;;;0.70;0.70;;;7.80;99.90;;;;;;5096725;28;20435;-80
2023/11/12 11:51:01;;;;;;;2.03;0.77;;;7.90;99.90;;;;;;5096283;28;20443;-79
2023/11/12 11:53:28;;;;;;;1.27;0.43;;;8.00;99.90;;;;;;5096767;28;20443;-80
2023/11/12 11:56:04;;;;;;;0.60;0.50;;;8.00;99.90;;;;;;5097030;28;20470;-79
2023/11/12 11:58:41;;;;;;;1.50;0.57;;;7.90;99.90;;;;;;5097030;28;20419;-79
2023/11/12 12:01:08;;;;;;;0.73;0.67;;;7.90;99.90;;;;;;5096627;28;20417;-79
2023/11/12 12:03:35;;;;;;;1.10;0.67;;;7.80;99.90;;;;;;5096187;28;20440;-80
2023/11/12 12:06:15;;;;;;;1.00;0.57;;;7.70;99.90;;;;;;5096120;28;20525;-80
2023/11/12 12:08:50;;;;;;;0.80;0.50;;;7.80;99.90;;;;;;5096400;28;20424;-80
2023/11/12 12:11:20;;;;;;;1.60;0.50;;;7.80;99.90;;;;;;5096224;28;20420;-80
2023/11/12 12:13:56;;;;;;;0.80;0.80;;;7.80;99.90;;;;;;5096472;28;20446;-79
2023/11/12 12:16:26;;;;;;;2.60;0.87;;;7.80;99.90;;;;;;5096432;28;20453;-79
2023/11/12 12:18:54;;;;;;;1.17;0.60;;;7.90;99.90;;;;;;5095355;28;20424;-79
2023/11/12 12:21:21;;;;;;;0.50;0.50;;;7.90;99.90;;;;;;5095938;28;20444;-79
2023/11/12 12:23:48;;;;;;;1.03;0.40;;;8.00;99.90;;;;;;5096632;28;20475;-80
2023/11/12 12:26:16;;;;;;;1.47;0.70;;;8.10;99.90;;;;;;5096287;28;20464;-79
2023/11/12 12:28:44;;;;;;;1.43;0.97;;;8.10;99.90;;;;;;5095909;28;20463;-79
2023/11/12 12:31:12;;;;;;;2.70;1.40;;;8.10;99.90;;;;;;5095473;28;20448;-79
2023/11/12 12:33:39;;;;;;;0.67;0.50;;;8.00;99.90;;;;;;5095775;28;20448;-79
2023/11/12 12:36:11;;;;;;;1.20;0.50;;;8.10;99.90;;;;;;5095600;28;20468;-79
2023/11/12 12:38:38;;;;;;;0.30;0.30;;;8.10;99.90;;;;;;5095813;28;20468;-80
2023/11/12 12:41:05;;;;;;;0.50;0.50;;;7.80;99.90;;;;;;5095690;28;20471;-80
2023/11/12 12:43:47;;;;;;;0.80;0.63;;;7.80;99.90;;;;;;5095547;28;20893;-80
2023/11/12 12:46:15;;;;;;;0.70;0.70;;;7.80;99.90;;;;;;5095587;28;20464;-79
2023/11/12 12:48:50;;;;;;;3.17;0.83;;;7.70;99.90;;;;;;5095618;28;20444;-79
2023/11/12 12:51:17;;;;;;;1.30;0.67;;;7.80;99.90;;;;;;5095903;28;20451;-79
2023/11/12 12:53:45;;;;;;;0.93;0.53;;;7.70;99.90;;;;;;5096257;28;20500;-79
2023/11/12 12:56:13;;;;;;;2.10;0.90;;;7.60;99.90;;;;;;5095897;28;20468;-79
2023/11/12 12:58:40;;;;;;;0.80;0.80;;;7.60;99.90;;;;;;5095329;28;20474;-79
2023/11/12 13:01:10;;;;;;;0.70;0.50;;;7.60;99.90;;;;;;5094991;28;20471;-80
2023/11/12 13:03:39;;;;;;;1.17;0.60;;;7.50;99.90;;;;;;5095593;28;20817;-79